Terminal Aerodrome Forecast
Issued by NWS

Home | Current Version | Previous Version | Text Only | Print | Product List | Glossary Off
Versions: 1 2 3 4 5 6 7 8 9 10 11 12 13 14 15 16

000
FTUS43 KMPX 260826 AAA
TAFRNH
TAF AMD
KRNH 260826Z 2608/2706 18006KT P6SM BKN020 OVC100
     FM261100 19007KT 6SM -FZDZSN BR OVC020
     FM261300 25008KT P6SM BKN025
     FM262100 30010G19KT P6SM OVC025
     FM270100 32009KT P6SM OVC020=

USA.gov is the U.S. government's official web portal to all federal, state and local government web resources and services.